KGRR/GRR METAR and TAF weather

Enter ICAO airport designator
Station Type Date Time Source
KGRR METAR 2020/02/25 11:53 UTC NOAA

KGRR 251153Z 05008KT 10SM FEW015 BKN055 01/M03 A2992 RMK AO2 SLP140 T00111028 10022 20011 53012


Station Type Date Time Source
KGRR Decoded METAR 2020/02/25 11:53 UTC NOAA

GERALD R. FORD INTERNATIONAL, MI, United States (KGRR) 42-53N 085-31W 239M
Feb 25, 2020 - 06:53 AM EST / 2020.02.25 1153 UTC
Wind: from the NE (050 degrees) at 9 MPH (8 KT):0
Visibility: 10 mile(s):0
Sky conditions: mostly cloudy
Temperature: 34.0 F (1.1 C)
Windchill: 26 F (-3 C):1
Dew Point: 27.0 F (-2.8 C)
Relative Humidity: 75%
Pressure (altimeter): 29.92 in. Hg (1013 hPa)
Pressure tendency: 0.04 inches (1.2 hPa) higher than three hours ago
ob: KGRR 251153Z 05008KT 10SM FEW015 BKN055 01/M03 A2992 RMK AO2 SLP140 T00111028 10022 20011 53012
cycle: 12

Station Type Date Time Source
KGRR TAF 2020/02/25 12:52 UTC NOAA

TAF KGRR 251149Z 2512/2612 04009KT P6SM OVC040
FM251600 04012KT P6SM OVC025
FM251800 04011KT P6SM OVC015
FM252000 04011KT P6SM -RASN OVC015
FM260000 04010KT 5SM -SN BR OVC012

Example: see airport list